Aviation Digital Data Service (ADDS)

Output produced by METARs form (0507 UTC 28 September 2016)
found at http://aviationweather.gov/adds/metars/
 
KDAN 280328Z 2803/2824 VRB05KT P6SM BKN045 
     TEMPO 2803/2805 3SM TSRA BR BKN035CB OVC100 
     FM280900 00000KT 5SM BR OVC025 
     FM281500 17004KT P6SM OVC015 
     FM281800 18006KT P6SM VCTS BKN025 OVC045CB